X  Fermer Données météorologiques d'aviation de Metar     LGSO Syros Airport
Température
22°C Température
12°C Point de rosée
53% Humidité



Vitesse
32 KM/H
20 MPH
9 M/S
17 KTS



360°
Nord
Conditions actuelles

Claire Claire
Pression 1019.98 (hPa) - 30.12 (inHg)
Visibilité 6 (mile) - 9.7 (km)
Aéroport
Code de l'aéroport LGSO

Emplacement: Syros Airport
Distance: 3 (km)

Metar:
LGSO 131050Z 36017KT CAVOK 22/12 Q1020

Temps: 13-04-2024 10:50 EEST